Heat Index SAI AWOS Graphical Display Untitled Document
Bertrand Chaffee Hospital Heliport (2NK6) Springville, New York, USA
270
01:14
26/11/2014
06
N/A
N/A
30.12
N/A
1420
34(F), 1(C)
28(F), -2(C)
29 F
82%
OVC019
6
-RA
0"
N/A
01:14 zulu Wind 270 at 06 Knots, Altimeter 30.12
METAR K2NK6 260114Z AUTO 27006KT 6SM -RA OVC019 01/M02 A3012 A02 P0000
METAR:
FAA Disclaimer--Advisory Use ONLY, not for flight info--
INFO:
Wind Direction:
Wind Speed:
Wind Gust:
Wind Variable:
Altimeter:
Dens Alt:
Elev:
Temp:
Dwpt:
Wind Chill
Rel Humidity:
Ceiling:
Visibility:
Prsnt Wea:
PCPN:
Remarks:
How to read the WebPage